Time;durP1;ratioP1;P1;durP2;ratioP2;P2;SDS_P1;SDS_P2;PMS_P1;PMS_P2;Temp;Humidity;BMP_temperature;BMP_pressure;BME280_temperature;BME280_humidity;BME280_pressure;Samples;Min_cycle;Max_cycle;Signal;HPM_P1;HPM_P2
2022/09/19 00:01:40;;;;;;;14.30;3.00;;;11.30;99.90;;;;;;5094639;27;20079;-50
2022/09/19 00:04:16;;;;;;;14.27;2.17;;;11.30;99.90;;;;;;5096464;28;20065;-53
2022/09/19 00:06:44;;;;;;;15.25;2.55;;;11.30;99.90;;;;;;5095680;28;20505;-51
2022/09/19 00:09:13;;;;;;;15.45;2.75;;;11.30;99.90;;;;;;5094294;28;20044;-50
2022/09/19 00:11:41;;;;;;;21.20;3.35;;;11.30;99.90;;;;;;5096448;28;20051;-49
2022/09/19 00:14:09;;;;;;;17.17;2.47;;;11.30;99.90;;;;;;5091904;28;20052;-49
2022/09/19 00:16:38;;;;;;;16.65;2.80;;;11.30;99.90;;;;;;5095388;28;20250;-51
2022/09/19 00:19:07;;;;;;;17.30;2.90;;;11.30;99.90;;;;;;5096746;28;20607;-49
2022/09/19 00:21:37;;;;;;;17.65;3.00;;;11.30;99.90;;;;;;5084669;28;20044;-49
2022/09/19 00:26:49;;;;;;;18.58;3.00;;;11.30;99.90;;;;;;5094502;28;20092;-39
2022/09/19 00:29:17;;;;;;;16.92;2.75;;;11.30;99.90;;;;;;5089299;28;20063;-39
2022/09/19 00:31:44;;;;;;;14.85;2.53;;;11.30;99.90;;;;;;5097313;28;20087;-49
2022/09/19 00:34:13;;;;;;;19.88;2.58;;;11.20;99.90;;;;;;5091068;28;20462;-50
2022/09/19 00:36:41;;;;;;;21.55;3.65;;;11.30;99.90;;;;;;5079205;28;20047;-51
2022/09/19 00:39:09;;;;;;;15.60;3.05;;;11.30;99.90;;;;;;5111835;27;20040;-49
2022/09/19 00:41:36;;;;;;;17.65;2.85;;;11.30;99.90;;;;;;5095626;28;20054;-48
2022/09/19 00:44:22;;;;;;;13.43;3.03;;;11.20;99.90;;;;;;5069524;28;20039;-49
2022/09/19 00:46:56;;;;;;;15.75;3.10;;;11.30;99.90;;;;;;5104166;28;20043;-50
2022/09/19 00:49:25;;;;;;;21.58;3.00;;;11.30;99.90;;;;;;5075433;28;20428;-53
2022/09/19 00:52:02;;;;;;;17.17;2.90;;;11.30;99.90;;;;;;5095873;28;20130;-39
2022/09/19 00:54:36;;;;;;;14.20;3.00;;;11.40;99.90;;;;;;5096052;27;20055;-38
2022/09/19 00:57:03;;;;;;;16.98;2.88;;;11.40;99.90;;;;;;5106068;27;20102;-36
2022/09/19 00:59:33;;;;;;;16.42;2.97;;;11.40;99.90;;;;;;5081613;28;20070;-39
2022/09/19 01:02:02;;;;;;;17.80;2.55;;;11.40;99.90;;;;;;5099691;28;20063;-38
2022/09/19 01:04:35;;;;;;;12.88;2.55;;;11.40;99.90;;;;;;5082265;28;20141;-51
2022/09/19 01:07:20;;;;;;;15.80;3.17;;;11.30;99.90;;;;;;5094145;28;20156;-49
2022/09/19 01:09:58;;;;;;;14.13;2.45;;;11.30;99.90;;;;;;5097718;27;20043;-40
2022/09/19 01:12:46;;;;;;;15.05;3.20;;;11.20;99.90;;;;;;5065274;28;20051;-42
2022/09/19 01:15:39;;;;;;;16.95;2.53;;;11.20;99.90;;;;;;5101380;27;20557;-48
2022/09/19 01:18:06;;;;;;;18.35;2.90;;;11.20;99.90;;;;;;5092949;28;20652;-49
2022/09/19 01:24:27;;;;;;;17.88;2.90;;;11.20;99.90;;;;;;5083105;28;20040;-51
2022/09/19 01:27:24;;;;;;;14.60;2.65;;;11.20;99.90;;;;;;5065367;28;20048;-47
2022/09/19 01:29:50;;;;;;;16.52;2.58;;;11.30;99.90;;;;;;5079101;28;20039;-50
2022/09/19 01:32:22;;;;;;;15.88;3.20;;;11.20;99.90;;;;;;5102844;27;20380;-49
2022/09/19 01:34:57;;;;;;;16.10;2.85;;;11.30;99.90;;;;;;5085894;28;20130;-53
2022/09/19 01:37:30;;;;;;;16.25;3.13;;;11.30;99.90;;;;;;5062322;28;20428;-50
2022/09/19 01:40:03;;;;;;;12.82;2.80;;;11.30;99.90;;;;;;5061136;28;20134;-51
2022/09/19 01:42:31;;;;;;;19.45;3.10;;;11.20;99.90;;;;;;5094160;28;20516;-50
2022/09/19 01:44:59;;;;;;;15.57;3.20;;;11.20;99.90;;;;;;5095411;27;20669;-51
2022/09/19 01:48:05;;;;;;;16.67;3.25;;;11.20;99.90;;;;;;5079860;28;20138;-51
2022/09/19 01:51:12;;;;;;;20.48;2.88;;;11.20;99.90;;;;;;5064968;28;20122;-55
2022/09/19 01:53:52;;;;;;;18.55;3.00;;;11.10;99.90;;;;;;5099739;28;20048;-53
2022/09/19 01:56:43;;;;;;;16.23;2.70;;;11.10;99.90;;;;;;5095856;27;20461;-50
2022/09/19 01:59:34;;;;;;;14.77;2.53;;;11.10;99.90;;;;;;5063717;28;20135;-50
2022/09/19 02:02:33;;;;;;;18.30;2.72;;;11.10;99.90;;;;;;5115388;27;20044;-52
2022/09/19 02:05:07;;;;;;;17.08;3.30;;;11.10;99.90;;;;;;5099673;27;20082;-38
2022/09/19 02:07:44;;;;;;;20.08;3.47;;;11.10;99.90;;;;;;5097323;28;20537;-38
2022/09/19 02:10:37;;;;;;;15.45;3.25;;;11.10;99.90;;;;;;5081060;28;20073;-39
2022/09/19 02:13:09;;;;;;;17.42;3.15;;;11.20;99.90;;;;;;5099121;28;20593;-39
2022/09/19 02:16:03;;;;;;;19.25;4.13;;;11.20;99.90;;;;;;5098629;27;20090;-38
2022/09/19 02:18:33;;;;;;;;;;;11.30;99.90;;;;;;5114738;27;20549;-50
2022/09/19 02:21:05;;;;;;;19.52;4.00;;;11.30;99.90;;;;;;5097733;28;19950;-50
2022/09/19 02:23:37;;;;;;;20.45;3.22;;;11.20;99.90;;;;;;5094185;27;20398;-48
2022/09/19 02:26:06;;;;;;;19.38;3.13;;;11.20;99.90;;;;;;5080576;28;20522;-50
2022/09/19 02:28:41;;;;;;;19.98;3.38;;;11.20;99.90;;;;;;5100915;27;20046;-52
2022/09/19 02:31:12;;;;;;;25.17;4.25;;;11.20;99.90;;;;;;5098280;28;20108;-50
2022/09/19 02:33:43;;;;;;;28.42;4.32;;;11.30;99.90;;;;;;5099081;27;20102;-52
2022/09/19 02:36:26;;;;;;;20.13;3.63;;;11.30;99.90;;;;;;5060996;28;20105;-48
2022/09/19 02:39:16;;;;;;;22.80;4.20;;;11.30;99.90;;;;;;5094887;28;20490;-49
2022/09/19 02:42:06;;;;;;;22.50;4.10;;;11.40;99.90;;;;;;5094976;28;20490;-52
2022/09/19 02:45:06;;;;;;;16.90;3.70;;;11.40;99.90;;;;;;5080285;28;20063;-50
2022/09/19 02:47:52;;;;;;;25.85;3.80;;;11.40;99.90;;;;;;5076541;28;20044;-47
2022/09/19 02:50:24;;;;;;;23.60;2.78;;;11.40;99.90;;;;;;5078492;28;20054;-48
2022/09/19 02:52:53;;;;;;;19.73;3.97;;;11.30;99.90;;;;;;5097642;28;20082;-51
2022/09/19 02:55:29;;;;;;;20.57;3.40;;;11.20;99.90;;;;;;5078377;28;20793;-51
2022/09/19 02:57:58;;;;;;;18.60;3.15;;;11.20;99.90;;;;;;5096132;28;20305;-49
2022/09/19 03:00:26;;;;;;;18.55;3.50;;;11.20;99.90;;;;;;5095445;28;20075;-38
2022/09/19 03:03:01;;;;;;;21.08;2.60;;;11.10;99.90;;;;;;5077416;28;20446;-38
2022/09/19 03:05:41;;;;;;;20.85;3.28;;;11.20;99.90;;;;;;5065104;28;20054;-38
2022/09/19 03:08:09;;;;;;;19.83;3.38;;;11.10;99.90;;;;;;5079822;28;20151;-38
2022/09/19 03:10:39;;;;;;;14.18;2.35;;;11.00;99.90;;;;;;5097848;28;20051;-38
2022/09/19 03:13:24;;;;;;;19.50;3.08;;;11.00;99.90;;;;;;5055458;28;20058;-38
2022/09/19 03:16:00;;;;;;;16.23;3.20;;;11.00;99.90;;;;;;5061004;28;20050;-37
2022/09/19 03:18:35;;;;;;;12.88;2.90;;;11.00;99.90;;;;;;5100967;27;20043;-38
2022/09/19 03:21:08;;;;;;;23.10;2.90;;;11.10;99.90;;;;;;5093485;28;20048;-50
2022/09/19 03:23:42;;;;;;;14.30;2.90;;;11.10;99.90;;;;;;5078604;28;20403;-51
2022/09/19 03:26:14;;;;;;;19.83;2.90;;;11.10;99.90;;;;;;5091870;28;20086;-50
2022/09/19 03:28:40;;;;;;;18.08;2.50;;;11.00;99.90;;;;;;5083137;28;20043;-51
2022/09/19 03:31:07;;;;;;;18.67;3.25;;;10.90;99.90;;;;;;5075938;28;20122;-48
2022/09/19 03:33:34;;;;;;;19.00;3.15;;;10.90;99.90;;;;;;5043974;28;20108;-52
2022/09/19 03:36:07;;;;;;;15.88;3.83;;;10.90;99.90;;;;;;5080842;28;20051;-48
2022/09/19 03:38:44;;;;;;;15.77;3.17;;;10.80;99.90;;;;;;5094446;28;20464;-49
2022/09/19 03:41:15;;;;;;;20.13;3.17;;;10.80;99.90;;;;;;5076890;28;20055;-42
2022/09/19 03:43:45;;;;;;;19.42;3.58;;;10.80;99.90;;;;;;5061251;28;20040;-38
2022/09/19 03:46:16;;;;;;;18.15;3.00;;;10.90;99.90;;;;;;5078310;28;20184;-48
2022/09/19 03:48:46;;;;;;;16.05;3.17;;;10.90;99.90;;;;;;5095236;27;20050;-52
2022/09/19 03:51:14;;;;;;;21.63;2.85;;;10.90;99.90;;;;;;5095076;28;20654;-52
2022/09/19 03:53:42;;;;;;;15.07;2.58;;;10.90;99.90;;;;;;5098703;27;20099;-52
2022/09/19 03:56:12;;;;;;;18.38;2.95;;;10.80;99.90;;;;;;5075879;28;20879;-50
2022/09/19 03:58:41;;;;;;;15.98;2.70;;;10.90;99.90;;;;;;5078379;28;20545;-51
2022/09/19 04:01:09;;;;;;;18.75;2.97;;;10.80;99.90;;;;;;5090568;28;20124;-50
2022/09/19 04:03:37;;;;;;;22.70;3.88;;;10.80;99.90;;;;;;5092560;28;20040;-50
2022/09/19 04:06:07;;;;;;;20.48;3.05;;;10.80;99.90;;;;;;5076723;28;20055;-48
2022/09/19 04:08:35;;;;;;;24.40;3.75;;;10.80;99.90;;;;;;5074395;28;20096;-48
2022/09/19 04:11:01;;;;;;;20.77;4.30;;;10.80;99.90;;;;;;5062088;28;20059;-48
2022/09/19 04:13:32;;;;;;;20.05;3.15;;;10.80;99.90;;;;;;5094059;27;20075;-48
2022/09/19 04:16:04;;;;;;;19.65;3.47;;;10.80;99.90;;;;;;5063320;28;20044;-49
2022/09/19 04:18:30;;;;;;;19.55;3.05;;;10.80;99.90;;;;;;5095465;28;20540;-48
2022/09/19 04:20:56;;;;;;;17.58;3.22;;;10.80;99.90;;;;;;5084506;28;20047;-49
2022/09/19 04:23:45;;;;;;;16.10;2.85;;;10.90;99.90;;;;;;5093609;28;20074;-48
2022/09/19 04:26:32;;;;;;;24.35;3.47;;;10.90;99.90;;;;;;5084506;28;20052;-37
2022/09/19 04:29:02;;;;;;;18.00;2.63;;;11.00;99.90;;;;;;5080224;28;20075;-38
2022/09/19 04:31:37;;;;;;;13.88;2.95;;;11.00;99.90;;;;;;5084126;28;20580;-38
2022/09/19 04:34:13;;;;;;;17.30;2.42;;;11.00;99.90;;;;;;5096323;27;20049;-39
2022/09/19 04:36:39;;;;;;;18.33;3.05;;;11.10;99.90;;;;;;5094166;28;20055;-47
2022/09/19 04:39:06;;;;;;;13.25;2.25;;;11.10;99.90;;;;;;5096256;28;20047;-39
2022/09/19 04:41:37;;;;;;;19.33;3.00;;;11.00;99.90;;;;;;5097481;28;20054;-38
2022/09/19 04:44:05;;;;;;;21.10;3.25;;;11.00;99.90;;;;;;5092238;27;20040;-38
2022/09/19 04:46:50;;;;;;;18.45;3.70;;;11.00;99.90;;;;;;5082353;28;20047;-39
2022/09/19 04:49:17;;;;;;;19.58;2.50;;;11.00;99.90;;;;;;5098297;27;20491;-51
2022/09/19 04:51:45;;;;;;;15.57;2.58;;;11.00;99.90;;;;;;5076652;28;20043;-48
2022/09/19 04:54:12;;;;;;;22.90;3.70;;;11.00;99.90;;;;;;5075633;28;20109;-48
2022/09/19 04:56:38;;;;;;;15.02;2.70;;;11.00;99.90;;;;;;5079496;28;20574;-38
2022/09/19 04:59:05;;;;;;;22.23;3.30;;;11.00;99.90;;;;;;5095960;27;20050;-38
2022/09/19 05:01:34;;;;;;;15.80;2.30;;;11.00;99.90;;;;;;5063533;28;20057;-39
2022/09/19 05:04:01;;;;;;;18.15;3.20;;;11.00;99.90;;;;;;5059924;28;20745;-39
2022/09/19 05:06:28;;;;;;;20.38;3.85;;;11.00;99.90;;;;;;5096447;27;20294;-38
2022/09/19 05:08:55;;;;;;;17.15;2.72;;;11.00;99.90;;;;;;5098675;28;20066;-38
2022/09/19 05:11:55;;;;;;;20.98;3.60;;;11.10;99.90;;;;;;5087323;27;20047;-39
2022/09/19 05:14:22;;;;;;;15.35;3.05;;;11.10;99.90;;;;;;5099448;28;20052;-40
2022/09/19 05:16:54;;;;;;;21.55;3.53;;;11.10;99.90;;;;;;5096368;28;20043;-43
2022/09/19 05:19:22;;;;;;;18.83;4.25;;;11.10;99.90;;;;;;5080785;28;20043;-39
2022/09/19 05:21:51;;;;;;;20.27;3.53;;;11.00;99.90;;;;;;5097960;28;20126;-38
2022/09/19 05:24:18;;;;;;;26.17;3.95;;;11.10;99.90;;;;;;5076932;28;20066;-39
2022/09/19 05:26:46;;;;;;;17.95;3.15;;;11.00;99.90;;;;;;5080382;28;20039;-38
2022/09/19 05:29:15;;;;;;;16.50;3.13;;;11.10;99.90;;;;;;5095656;28;20583;-39
2022/09/19 05:32:00;;;;;;;25.13;3.80;;;11.10;99.90;;;;;;5093307;28;20067;-41
2022/09/19 05:34:37;;;;;;;22.60;3.03;;;11.10;99.90;;;;;;5107568;27;20130;-39
2022/09/19 05:37:04;;;;;;;18.80;3.15;;;11.10;99.90;;;;;;5097948;28;20385;-39
2022/09/19 05:39:48;;;;;;;15.55;2.92;;;11.20;99.90;;;;;;5097999;28;20048;-38
2022/09/19 05:42:46;;;;;;;17.08;3.40;;;11.20;99.90;;;;;;5080384;28;20044;-39
2022/09/19 05:45:13;;;;;;;14.95;2.92;;;11.20;99.90;;;;;;5101301;27;20576;-38
2022/09/19 05:47:39;;;;;;;19.15;3.15;;;11.20;99.90;;;;;;5101273;28;20421;-39
2022/09/19 05:50:09;;;;;;;18.50;3.67;;;11.20;99.90;;;;;;5083900;28;20079;-38
2022/09/19 05:55:23;;;;;;;21.95;3.05;;;11.20;99.90;;;;;;5095998;27;20058;-39
2022/09/19 05:58:05;;;;;;;15.73;2.55;;;11.20;99.90;;;;;;5082471;28;20518;-39
2022/09/19 06:00:31;;;;;;;21.65;3.83;;;11.10;99.90;;;;;;5079087;28;20362;-38
2022/09/19 06:03:00;;;;;;;17.85;3.05;;;11.00;99.90;;;;;;5094756;28;20044;-38
2022/09/19 06:05:32;;;;;;;19.40;3.75;;;11.00;99.90;;;;;;5093616;27;20516;-39
2022/09/19 06:07:59;;;;;;;18.92;2.83;;;11.00;99.90;;;;;;5079444;28;20075;-38
2022/09/19 06:10:27;;;;;;;18.67;3.63;;;10.90;99.90;;;;;;5079542;28;20054;-39
2022/09/19 06:12:54;;;;;;;20.02;3.60;;;10.90;99.90;;;;;;5078437;28;20407;-39
2022/09/19 06:15:21;;;;;;;18.08;3.13;;;10.90;99.90;;;;;;5096127;27;20581;-39
2022/09/19 06:17:54;;;;;;;22.42;3.47;;;11.00;99.90;;;;;;5093391;27;21462;-40
2022/09/19 06:20:42;;;;;;;17.77;3.22;;;11.10;99.90;;;;;;5094922;28;20048;-39
2022/09/19 06:23:27;;;;;;;11.98;2.72;;;11.20;99.90;;;;;;5095497;27;20530;-39
2022/09/19 06:25:53;;;;;;;17.75;2.70;;;11.30;99.90;;;;;;5061999;28;20035;-40
2022/09/19 06:28:19;;;;;;;15.35;2.97;;;11.50;99.90;;;;;;5096072;27;20497;-39
2022/09/19 06:31:04;;;;;;;20.83;3.72;;;11.60;99.90;;;;;;5048486;28;20079;-39
2022/09/19 06:33:48;;;;;;;16.35;3.70;;;11.70;99.90;;;;;;5093651;27;20450;-50
2022/09/19 06:36:19;;;;;;;17.83;4.72;;;11.80;99.90;;;;;;5098634;27;20059;-49
2022/09/19 06:38:46;;;;;;;16.42;3.85;;;11.80;99.90;;;;;;5059803;28;20427;-50
2022/09/19 06:41:34;;;;;;;18.20;3.78;;;11.80;99.90;;;;;;5096333;28;20570;-52
2022/09/19 06:44:39;;;;;;;13.10;3.25;;;11.90;99.90;;;;;;5045193;28;20066;-51
2022/09/19 06:47:24;;;;;;;14.60;2.78;;;11.80;99.90;;;;;;5031490;28;20056;-53
2022/09/19 06:50:05;;;;;;;16.35;4.13;;;11.70;99.90;;;;;;5057948;28;20051;-49
2022/09/19 06:52:38;;;;;;;13.63;2.75;;;11.70;99.90;;;;;;5091171;27;20047;-50
2022/09/19 06:55:06;;;;;;;17.90;2.38;;;11.70;99.90;;;;;;5077790;27;20039;-48
2022/09/19 06:57:33;;;;;;;18.42;3.00;;;11.70;99.90;;;;;;5076880;28;20056;-49
2022/09/19 07:00:00;;;;;;;13.75;2.50;;;11.80;99.90;;;;;;5095656;28;20495;-49
2022/09/19 07:02:29;;;;;;;14.75;3.25;;;12.00;99.90;;;;;;5043786;28;20051;-52
2022/09/19 07:04:57;;;;;;;13.43;2.25;;;12.20;99.90;;;;;;5089244;27;20043;-51
2022/09/19 07:07:40;;;;;;;9.85;2.58;;;12.50;99.90;;;;;;5045119;28;20059;-49
2022/09/19 07:10:07;;;;;;;13.23;3.38;;;12.90;99.90;;;;;;5092546;28;20047;-49
2022/09/19 07:12:34;;;;;;;11.45;2.78;;;13.20;99.90;;;;;;5076106;28;20790;-51
2022/09/19 07:15:04;;;;;;;13.60;2.63;;;13.30;99.90;;;;;;5063005;28;20438;-50
2022/09/19 07:17:31;;;;;;;12.48;2.53;;;13.30;99.90;;;;;;5094391;27;20069;-50
2022/09/19 07:20:00;;;;;;;10.63;2.10;;;13.20;99.90;;;;;;5078355;28;20051;-51
2022/09/19 07:22:26;;;;;;;18.40;2.83;;;13.10;99.90;;;;;;5096062;28;20052;-53
2022/09/19 07:25:11;;;;;;;14.35;2.35;;;13.10;99.90;;;;;;5091910;28;21309;-50
2022/09/19 07:28:03;;;;;;;13.52;2.67;;;13.00;99.90;;;;;;5075423;28;20115;-54
2022/09/19 07:30:30;;;;;;;16.58;2.55;;;13.00;99.90;;;;;;5075759;28;20126;-51
2022/09/19 07:32:59;;;;;;;10.13;2.60;;;13.20;99.90;;;;;;5071836;28;20546;-51
2022/09/19 07:35:28;;;;;;;14.75;2.95;;;13.50;99.90;;;;;;5089987;28;20051;-50
2022/09/19 07:37:56;;;;;;;13.93;2.55;;;13.90;99.90;;;;;;5087687;28;20077;-53
2022/09/19 07:40:37;;;;;;;9.48;2.20;;;14.60;99.90;;;;;;5058790;28;20410;-53
2022/09/19 07:43:05;;;;;;;10.98;1.98;;;15.00;99.90;;;;;;5073936;28;20048;-49
2022/09/19 07:45:52;;;;;;;13.30;2.45;;;15.40;99.90;;;;;;5090833;28;20094;-50
2022/09/19 07:48:36;;;;;;;14.73;2.63;;;15.70;99.90;;;;;;5061094;28;20049;-51
2022/09/19 07:51:23;;;;;;;12.38;2.88;;;15.70;99.90;;;;;;5091078;28;20044;-52
2022/09/19 07:53:50;;;;;;;14.05;2.65;;;16.00;99.90;;;;;;5074118;28;20090;-50
2022/09/19 07:56:17;;;;;;;9.18;1.98;;;15.80;99.90;;;;;;5073292;28;20639;-52
2022/09/19 07:58:43;;;;;;;10.40;2.53;;;16.00;99.90;;;;;;5090294;28;21591;-54
2022/09/19 08:01:13;;;;;;;10.30;2.35;;;15.80;99.90;;;;;;5089893;27;20054;-52
2022/09/19 08:03:57;;;;;;;12.93;2.58;;;15.80;99.90;;;;;;5093463;28;20568;-52
2022/09/19 08:06:31;;;;;;;11.10;1.88;;;16.00;99.90;;;;;;5079818;28;20047;-41
2022/09/19 08:09:01;;;;;;;12.88;2.28;;;16.60;99.90;;;;;;5104146;27;20043;-43
2022/09/19 08:11:47;;;;;;;12.93;1.98;;;17.20;99.90;;;;;;5094464;28;20729;-45
2022/09/19 08:14:14;;;;;;;14.45;2.65;;;17.20;99.90;;;;;;5083279;28;20060;-54
2022/09/19 08:16:41;;;;;;;10.30;1.98;;;16.90;99.90;;;;;;5077293;28;20039;-54
2022/09/19 08:19:08;;;;;;;14.55;2.83;;;16.30;99.90;;;;;;5096758;28;20122;-54
2022/09/19 08:21:35;;;;;;;9.70;1.77;;;16.00;99.90;;;;;;5094325;28;20078;-44
2022/09/19 08:24:04;;;;;;;10.55;2.92;;;15.90;99.90;;;;;;5073174;28;20040;-53
2022/09/19 08:26:30;;;;;;;14.63;3.80;;;16.00;99.90;;;;;;5094430;28;20381;-54
2022/09/19 08:28:57;;;;;;;9.93;1.95;;;16.30;99.90;;;;;;5076623;28;20166;-52
2022/09/19 08:31:27;;;;;;;11.57;1.98;;;16.80;99.90;;;;;;5044345;28;20047;-54
2022/09/19 08:33:54;;;;;;;12.38;2.55;;;17.50;99.90;;;;;;5074269;28;20552;-55
2022/09/19 08:36:22;;;;;;;13.43;3.15;;;18.10;99.90;;;;;;5089366;28;20481;-43
2022/09/19 08:38:51;;;;;;;9.48;2.08;;;18.40;99.90;;;;;;5090083;28;20075;-42
2022/09/19 08:41:44;;;;;;;14.30;3.17;;;18.90;99.90;;;;;;5090483;28;20673;-44
2022/09/19 08:44:30;;;;;;;13.52;3.38;;;19.30;99.90;;;;;;5108319;27;20047;-41
2022/09/19 08:47:18;;;;;;;12.45;2.47;;;19.50;99.90;;;;;;5094147;28;20163;-55
2022/09/19 08:49:56;;;;;;;11.45;2.40;;;18.80;99.90;;;;;;5111638;27;20050;-55
2022/09/19 08:52:45;;;;;;;14.27;2.40;;;18.00;99.90;;;;;;5094739;28;20048;-53
2022/09/19 08:55:18;;;;;;;11.82;2.22;;;17.60;99.90;;;;;;5074769;28;20047;-53
2022/09/19 08:58:04;;;;;;;11.80;2.08;;;17.30;99.90;;;;;;5078232;28;20463;-53
2022/09/19 09:00:54;;;;;;;12.98;2.67;;;17.10;99.90;;;;;;5091333;28;20510;-44
2022/09/19 09:03:38;;;;;;;12.60;2.80;;;17.70;99.90;;;;;;5090084;28;20048;-43
2022/09/19 09:06:38;;;;;;;10.30;2.17;;;18.40;99.90;;;;;;5089532;28;20126;-44
2022/09/19 09:09:16;;;;;;;13.95;2.38;;;19.20;99.90;;;;;;5093378;28;20055;-43
2022/09/19 09:12:03;;;;;;;11.52;2.50;;;19.50;99.90;;;;;;5089039;28;20043;-42
2022/09/19 09:14:46;;;;;;;9.02;2.20;;;20.40;99.90;;;;;;5076522;28;20468;-44
2022/09/19 09:17:28;;;;;;;9.00;1.98;;;20.90;99.90;;;;;;5111183;27;20051;-57
2022/09/19 09:20:08;;;;;;;9.93;2.33;;;21.30;99.90;;;;;;5096012;27;20494;-54
2022/09/19 09:22:43;;;;;;;8.95;2.00;;;21.40;99.90;;;;;;5110989;27;20178;-56
2022/09/19 09:25:30;;;;;;;10.02;2.97;;;20.70;99.90;;;;;;5078041;28;20114;-53
2022/09/19 09:28:14;;;;;;;8.75;1.80;;;20.90;99.90;;;;;;5112789;27;20395;-54
2022/09/19 09:31:23;;;;;;;13.23;5.90;;;21.00;99.90;;;;;;5063060;28;20071;-55
2022/09/19 09:34:03;;;;;;;8.48;2.17;;;20.60;99.90;;;;;;5092630;28;20305;-56
2022/09/19 09:36:35;;;;;;;10.88;6.35;;;20.00;99.90;;;;;;5112013;27;20054;-55
2022/09/19 09:39:30;;;;;;;7.88;1.95;;;19.30;99.90;;;;;;5073171;27;20055;-54
2022/09/19 09:42:01;;;;;;;8.75;1.77;;;19.20;99.90;;;;;;5071877;28;20056;-56
2022/09/19 09:44:51;;;;;;;8.70;2.70;;;19.50;99.90;;;;;;5093465;28;20380;-53
2022/09/19 09:47:27;;;;;;;6.88;2.38;;;20.40;99.90;;;;;;5075093;28;20573;-55
2022/09/19 09:50:16;;;;;;;7.82;2.45;;;20.80;99.90;;;;;;5094481;28;20100;-44
2022/09/19 09:53:00;;;;;;;11.73;3.55;;;20.40;99.90;;;;;;5063816;28;20044;-54
2022/09/19 09:59:03;;;;;;;8.43;2.03;;;21.40;99.90;;;;;;5074221;28;20646;-53
2022/09/19 10:04:34;;;;;;;10.70;3.58;;;21.90;99.90;;;;;;5077094;28;20141;-53
2022/09/19 10:07:12;;;;;;;10.88;2.13;;;22.50;99.90;;;;;;5096219;28;20414;-55
2022/09/19 10:09:49;;;;;;;9.20;2.20;;;22.70;99.90;;;;;;5093626;28;20076;-54
2022/09/19 10:12:44;;;;;;;10.23;3.20;;;22.70;99.90;;;;;;5085679;28;20391;-54
2022/09/19 10:15:20;;;;;;;8.75;2.08;;;22.90;99.90;;;;;;5097442;27;20414;-54
2022/09/19 10:18:07;;;;;;;12.10;2.63;;;23.00;99.90;;;;;;5093235;28;20818;-54
2022/09/19 10:20:51;;;;;;;9.00;2.50;;;22.90;98.90;;;;;;5076533;28;20423;-53
2022/09/19 10:23:29;;;;;;;9.55;2.03;;;23.30;99.00;;;;;;5095314;28;20040;-53
2022/09/19 10:26:14;;;;;;;11.85;5.22;;;22.80;99.90;;;;;;5094371;28;20044;-54
2022/09/19 10:28:53;;;;;;;9.10;1.70;;;21.70;95.20;;;;;;5076425;28;20051;-54
2022/09/19 10:31:40;;;;;;;10.00;5.40;;;20.70;96.70;;;;;;5088912;28;20388;-52
2022/09/19 10:34:32;;;;;;;11.38;5.32;;;20.00;99.90;;;;;;5093504;28;20116;-53
2022/09/19 10:37:02;;;;;;;12.27;4.53;;;20.30;99.90;;;;;;5091619;28;20044;-53
2022/09/19 10:39:33;;;;;;;23.60;15.55;;;21.40;99.90;;;;;;5077546;27;20725;-52
2022/09/19 10:41:59;;;;;;;16.95;10.52;;;22.10;99.90;;;;;;5074756;28;20050;-43
2022/09/19 10:44:26;;;;;;;9.63;2.72;;;22.50;99.60;;;;;;5090134;28;20478;-53
2022/09/19 10:47:03;;;;;;;16.52;11.63;;;23.30;96.90;;;;;;5092245;28;20100;-43
2022/09/19 10:49:51;;;;;;;14.40;10.45;;;23.20;94.00;;;;;;5074742;28;20052;-46
2022/09/19 10:52:30;;;;;;;20.25;15.73;;;23.50;96.20;;;;;;5040300;28;20043;-54
2022/09/19 10:55:00;;;;;;;7.85;3.65;;;23.60;96.00;;;;;;5077742;28;20577;-51
2022/09/19 10:57:46;;;;;;;11.05;7.35;;;23.00;95.80;;;;;;5092318;28;20109;-54
2022/09/19 11:00:30;;;;;;;10.80;6.20;;;21.80;95.10;;;;;;5076777;27;20044;-44
2022/09/19 11:03:16;;;;;;;8.57;2.78;;;20.90;99.40;;;;;;5073212;28;20050;-44
2022/09/19 11:05:42;;;;;;;22.42;17.40;;;20.50;99.90;;;;;;5093741;28;20529;-52
2022/09/19 11:08:25;;;;;;;10.05;4.75;;;20.90;99.90;;;;;;5091565;28;20289;-50
2022/09/19 11:10:56;;;;;;;8.70;1.75;;;22.20;99.90;;;;;;5076814;28;20078;-53
2022/09/19 11:13:30;;;;;;;8.13;3.28;;;22.80;99.90;;;;;;5109606;27;20063;-53
2022/09/19 11:16:12;;;;;;;6.47;1.77;;;23.20;99.30;;;;;;5079501;28;20050;-57
2022/09/19 11:19:06;;;;;;;7.22;2.00;;;22.70;94.40;;;;;;5076049;28;20514;-53
2022/09/19 11:22:10;;;;;;;9.10;4.38;;;23.00;92.40;;;;;;5087698;28;20165;-52
2022/09/19 11:24:46;;;;;;;6.82;2.63;;;23.70;92.20;;;;;;5054096;28;20524;-54
2022/09/19 11:27:30;;;;;;;7.60;2.20;;;23.70;93.10;;;;;;5077980;28;20043;-53
2022/09/19 11:30:14;;;;;;;12.52;5.97;;;24.50;90.70;;;;;;5089468;28;20690;-52
2022/09/19 11:32:57;;;;;;;17.70;9.27;;;24.40;87.60;;;;;;5075488;28;20040;-54
2022/09/19 11:36:15;;;;;;;10.02;3.50;;;25.30;87.90;;;;;;5092123;28;21915;-46
2022/09/19 11:39:15;;;;;;;19.00;15.23;;;24.40;78.30;;;;;;5075866;28;20044;-43
2022/09/19 11:41:58;;;;;;;10.55;2.35;;;23.70;82.30;;;;;;5083610;27;20464;-43
2022/09/19 11:44:35;;;;;;;11.85;7.18;;;24.20;84.00;;;;;;5093932;28;20133;-45
2022/09/19 11:47:34;;;;;;;18.50;12.27;;;25.20;83.30;;;;;;5090204;28;20118;-45
2022/09/19 11:50:25;;;;;;;22.85;18.65;;;25.00;75.00;;;;;;5076913;28;20043;-41
2022/09/19 11:53:10;;;;;;;22.50;12.45;;;24.30;77.80;;;;;;5069943;28;20044;-42
2022/09/19 11:56:19;;;;;;;9.93;4.00;;;23.70;83.60;;;;;;5092753;28;20494;-42
2022/09/19 11:59:07;;;;;;;9.18;2.72;;;21.60;93.20;;;;;;5078066;28;20471;-41
2022/09/19 12:01:58;;;;;;;12.48;6.45;;;19.80;99.90;;;;;;5088241;28;20058;-43
2022/09/19 12:04:32;;;;;;;10.45;3.28;;;19.10;99.90;;;;;;5076145;28;20645;-45
2022/09/19 12:07:18;;;;;;;8.90;2.00;;;18.30;99.90;;;;;;5093524;28;20044;-40
2022/09/19 12:09:52;;;;;;;8.45;1.75;;;17.50;99.90;;;;;;5091615;28;20048;-40
2022/09/19 12:12:21;;;;;;;11.13;2.53;;;16.80;99.90;;;;;;5061860;28;20046;-49
2022/09/19 12:15:22;;;;;;;9.25;1.85;;;16.10;99.90;;;;;;5070485;28;20134;-50
2022/09/19 12:18:22;;;;;;;8.82;2.00;;;15.50;99.90;;;;;;5090006;28;20052;-52
2022/09/19 12:20:55;;;;;;;9.55;2.90;;;15.00;99.90;;;;;;5087730;28;20454;-53
2022/09/19 12:26:41;;;;;;;9.00;1.98;;;14.80;99.90;;;;;;5088396;28;20047;-52
2022/09/19 12:29:34;;;;;;;5.53;1.15;;;14.50;99.90;;;;;;5073163;28;20047;-53
2022/09/19 12:32:40;;;;;;;7.78;1.48;;;14.40;99.90;;;;;;5082912;28;20047;-51
2022/09/19 12:35:15;;;;;;;8.15;1.80;;;14.20;99.90;;;;;;5087869;28;20857;-50
2022/09/19 12:38:17;;;;;;;12.60;2.28;;;14.20;99.90;;;;;;5089557;28;20048;-49
2022/09/19 12:40:44;;;;;;;6.38;1.85;;;14.40;99.90;;;;;;5090498;28;20048;-51
2022/09/19 12:43:30;;;;;;;8.70;2.03;;;14.80;99.90;;;;;;5090665;28;20556;-48
2022/09/19 12:46:09;;;;;;;8.27;1.83;;;15.20;99.90;;;;;;5055767;28;20043;-49
2022/09/19 12:48:48;;;;;;;7.63;1.80;;;16.80;99.90;;;;;;5057574;28;20806;-54
2022/09/19 12:51:50;;;;;;;8.80;1.83;;;18.50;99.90;;;;;;5077717;28;20047;-50
2022/09/19 12:54:36;;;;;;;10.32;2.00;;;19.20;99.90;;;;;;5094665;28;20376;-51
2022/09/19 12:57:18;;;;;;;10.15;2.05;;;19.50;99.90;;;;;;5075628;28;20074;-52
2022/09/19 12:59:50;;;;;;;11.13;2.40;;;20.00;99.90;;;;;;5092151;27;20216;-50
2022/09/19 13:02:23;;;;;;;11.80;3.88;;;20.50;99.90;;;;;;5089853;28;20485;-51
2022/09/19 13:04:57;;;;;;;9.85;2.58;;;21.30;99.90;;;;;;5073537;28;20086;-54
2022/09/19 13:07:41;;;;;;;12.18;2.92;;;21.80;99.90;;;;;;5072913;28;20156;-52
2022/09/19 13:10:11;;;;;;;13.85;2.50;;;22.40;99.90;;;;;;5093115;27;20040;-53
2022/09/19 13:12:41;;;;;;;10.77;2.85;;;21.20;99.90;;;;;;5077197;28;20488;-42
2022/09/19 13:15:19;;;;;;;14.38;2.42;;;20.40;99.90;;;;;;5094907;28;20147;-43
2022/09/19 13:23:35;;;;;;;8.93;1.98;;;16.70;99.90;;;;;;5099652;28;20066;-51
2022/09/19 13:26:17;;;;;;;8.50;1.75;;;16.10;99.90;;;;;;5075454;28;20048;-51
2022/09/19 13:28:51;;;;;;;12.70;3.80;;;15.70;99.90;;;;;;5111317;27;20046;-52
2022/09/19 13:31:19;;;;;;;11.68;3.30;;;15.30;99.90;;;;;;5093307;28;20049;-49
2022/09/19 13:33:52;;;;;;;8.13;1.95;;;15.10;99.90;;;;;;5096868;28;20097;-47
2022/09/19 13:36:37;;;;;;;10.88;3.72;;;14.90;99.90;;;;;;5095088;28;20558;-49
2022/09/19 13:39:07;;;;;;;11.38;2.35;;;14.80;99.90;;;;;;5089222;27;20047;-48
2022/09/19 13:41:52;;;;;;;13.70;2.08;;;14.80;99.90;;;;;;5080651;28;20506;-50
2022/09/19 13:44:40;;;;;;;11.73;2.90;;;15.00;99.90;;;;;;5095667;28;20608;-52
2022/09/19 13:47:24;;;;;;;15.98;6.43;;;15.00;99.90;;;;;;5096552;28;20036;-51
2022/09/19 13:50:17;;;;;;;12.27;5.25;;;15.00;99.90;;;;;;5062844;28;20040;-51
2022/09/19 13:52:51;;;;;;;11.00;2.20;;;15.00;99.90;;;;;;5095156;27;20050;-48